createdAt,value
2018-11-25T00:02:23.543Z,101310.73
2018-11-25T00:04:56.490Z,101309.44
2018-11-25T00:07:34.692Z,101308.00
2018-11-25T00:10:13.160Z,101309.69
2018-11-25T00:12:56.249Z,101309.30
2018-11-25T00:15:43.256Z,101306.38
2018-11-25T00:18:14.294Z,101300.38
2018-11-25T00:20:57.620Z,101294.81
2018-11-25T00:23:36.267Z,101297.07
2018-11-25T00:26:08.815Z,101302.64
2018-11-25T00:28:45.608Z,101295.56
2018-11-25T00:31:22.069Z,101301.42
2018-11-25T00:36:41.749Z,101293.09
2018-11-25T00:39:13.299Z,101292.14
2018-11-25T00:41:47.315Z,101293.84
2018-11-25T00:44:20.437Z,101291.10
2018-11-25T00:46:54.474Z,101286.36
2018-11-25T00:52:08.996Z,101284.45
2018-11-25T00:54:41.614Z,101286.61
2018-11-25T00:57:15.768Z,101290.70
2018-11-25T00:59:55.149Z,101288.08
2018-11-25T01:02:35.124Z,101292.80
2018-11-25T01:05:14.422Z,101290.86
2018-11-25T01:07:46.521Z,101289.59
2018-11-25T01:10:29.237Z,101291.83
2018-11-25T01:13:04.228Z,101293.12
2018-11-25T01:15:37.472Z,101293.45
2018-11-25T01:18:10.135Z,101290.00
2018-11-25T01:20:41.323Z,101295.13
2018-11-25T01:23:14.365Z,101306.06
2018-11-25T01:25:45.858Z,101295.28
2018-11-25T01:28:17.277Z,101302.68
2018-11-25T01:30:49.724Z,101293.02
2018-11-25T01:33:20.750Z,101292.15
2018-11-25T01:35:51.487Z,101288.23
2018-11-25T01:38:24.997Z,101291.83
2018-11-25T01:40:56.043Z,101292.08
2018-11-25T01:43:26.937Z,101290.93
2018-11-25T01:45:58.948Z,101289.20
2018-11-25T01:48:31.707Z,101284.68
2018-11-25T01:51:02.956Z,101281.05
2018-11-25T01:53:34.376Z,101284.78
2018-11-25T01:56:06.574Z,101280.37
2018-11-25T01:58:39.220Z,101282.59
2018-11-25T02:01:12.661Z,101285.11
2018-11-25T02:03:46.333Z,101276.63
2018-11-25T02:06:17.180Z,101276.66
2018-11-25T02:08:47.863Z,101279.54
2018-11-25T02:11:18.746Z,101283.06
2018-11-25T02:13:49.507Z,101268.91
2018-11-25T02:16:20.093Z,101268.66
2018-11-25T02:18:51.025Z,101273.39
2018-11-25T02:21:21.819Z,101269.84
2018-11-25T02:23:53.579Z,101270.66
2018-11-25T02:26:24.224Z,101263.86
2018-11-25T02:28:55.548Z,101264.52
2018-11-25T02:31:26.642Z,101259.95
2018-11-25T02:33:57.271Z,101254.78
2018-11-25T02:36:28.213Z,101255.10
2018-11-25T02:38:58.836Z,101250.34
2018-11-25T02:41:29.473Z,101246.55
2018-11-25T02:44:00.366Z,101243.80
2018-11-25T02:46:31.867Z,101248.93
2018-11-25T02:49:02.430Z,101243.09
2018-11-25T02:51:33.125Z,101242.63
2018-11-25T02:54:04.430Z,101244.94
2018-11-25T02:56:35.479Z,101243.37
2018-11-25T02:59:06.506Z,101246.51
2018-11-25T03:01:37.121Z,101242.52
2018-11-25T03:04:07.769Z,101245.48
2018-11-25T03:06:38.283Z,101244.78
2018-11-25T03:09:09.560Z,101248.78
2018-11-25T03:11:40.140Z,101247.56
2018-11-25T03:14:11.356Z,101247.45
2018-11-25T03:16:42.501Z,101243.25
2018-11-25T03:19:13.755Z,101235.78
2018-11-25T03:21:44.920Z,101235.08
2018-11-25T03:24:15.666Z,101239.34
2018-11-25T03:26:46.776Z,101225.93
2018-11-25T03:29:18.039Z,101229.06
2018-11-25T03:31:50.133Z,101227.34
2018-11-25T03:34:21.842Z,101227.73
2018-11-25T03:36:52.777Z,101227.77
2018-11-25T03:39:23.236Z,101229.57
2018-11-25T03:41:53.847Z,101227.77
2018-11-25T03:44:25.507Z,101229.14
2018-11-25T03:46:56.258Z,101235.24
2018-11-25T03:49:27.056Z,101230.27
2018-11-25T03:51:58.203Z,101237.35
2018-11-25T03:54:28.335Z,101238.72
2018-11-25T03:56:59.026Z,101231.38
2018-11-25T03:59:29.208Z,101225.81
2018-11-25T04:02:01.534Z,101227.97
2018-11-25T04:04:32.254Z,101231.99
2018-11-25T04:07:03.386Z,101227.84
2018-11-25T04:09:34.968Z,101226.05
2018-11-25T04:12:07.684Z,101223.00
2018-11-25T04:14:40.261Z,101224.91
2018-11-25T04:17:11.957Z,101229.38
2018-11-25T04:19:42.955Z,101223.70
2018-11-25T04:22:15.632Z,101224.91
2018-11-25T04:24:46.864Z,101222.41
2018-11-25T04:27:17.789Z,101223.86
2018-11-25T04:29:49.235Z,101230.19
2018-11-25T04:32:19.964Z,101228.86
2018-11-25T04:34:50.736Z,101236.61
2018-11-25T04:37:21.369Z,101228.67
2018-11-25T04:39:52.802Z,101229.41
2018-11-25T04:42:23.755Z,101235.47
2018-11-25T04:44:56.108Z,101233.25
2018-11-25T04:47:26.825Z,101235.08
2018-11-25T04:49:57.566Z,101229.02
2018-11-25T04:52:28.300Z,101226.78
2018-11-25T04:54:59.295Z,101230.81
2018-11-25T04:57:31.401Z,101226.13
2018-11-25T05:00:02.440Z,101225.73
2018-11-25T05:02:35.372Z,101229.17
2018-11-25T05:05:08.626Z,101229.22
2018-11-25T05:07:40.420Z,101230.19
2018-11-25T05:10:19.502Z,101229.84
2018-11-25T05:12:50.574Z,101228.47
2018-11-25T05:15:22.930Z,101228.94
2018-11-25T05:17:54.037Z,101234.89
2018-11-25T05:20:25.449Z,101229.33
2018-11-25T05:22:58.169Z,101233.87
2018-11-25T05:25:28.753Z,101233.87
2018-11-25T05:27:59.252Z,101235.20
2018-11-25T05:30:30.032Z,101239.63
2018-11-25T05:33:00.747Z,101237.91
2018-11-25T05:35:31.261Z,101236.65
2018-11-25T05:38:03.364Z,101238.02
2018-11-25T05:40:34.055Z,101241.46
2018-11-25T05:43:04.974Z,101248.38
2018-11-25T05:45:35.631Z,101236.88
2018-11-25T05:48:06.759Z,101241.77
2018-11-25T05:50:38.552Z,101239.34
2018-11-25T05:53:11.373Z,101239.34
2018-11-25T05:55:42.131Z,101238.91
2018-11-25T05:58:13.111Z,101240.09
2018-11-25T06:00:44.408Z,101247.09
2018-11-25T06:03:15.889Z,101249.36
2018-11-25T06:05:46.444Z,101251.98
2018-11-25T06:08:17.606Z,101252.88
2018-11-25T06:10:49.193Z,101255.97
2018-11-25T06:13:20.042Z,101256.05
2018-11-25T06:15:51.384Z,101253.58
2018-11-25T06:18:22.094Z,101264.80
2018-11-25T06:20:53.629Z,101262.69
2018-11-25T06:23:24.201Z,101262.33
2018-11-25T06:25:54.844Z,101263.30
2018-11-25T06:28:26.273Z,101259.63
2018-11-25T06:30:56.908Z,101264.37
2018-11-25T06:33:28.235Z,101278.96
2018-11-25T06:35:58.827Z,101267.89
2018-11-25T06:38:29.535Z,101273.17
2018-11-25T06:41:00.353Z,101279.14
2018-11-25T06:43:31.123Z,101276.88
2018-11-25T06:46:02.410Z,101286.22
2018-11-25T06:48:33.305Z,101285.50
2018-11-25T06:51:04.663Z,101276.27
2018-11-25T06:53:36.596Z,101290.89
2018-11-25T06:56:07.519Z,101281.69
2018-11-25T06:58:38.138Z,101285.94
2018-11-25T07:01:10.864Z,101285.40
2018-11-25T07:03:41.378Z,101292.26
2018-11-25T07:06:12.382Z,101298.44
2018-11-25T07:08:43.329Z,101299.98
2018-11-25T07:11:14.276Z,101290.03
2018-11-25T07:13:45.097Z,101296.25
2018-11-25T07:16:18.479Z,101300.56
2018-11-25T07:18:50.591Z,101300.52
2018-11-25T07:21:22.979Z,101297.40
2018-11-25T07:23:55.227Z,101307.28
2018-11-25T07:26:27.729Z,101303.00
2018-11-25T07:28:58.722Z,101301.66
2018-11-25T07:31:30.269Z,101305.12
2018-11-25T07:34:00.998Z,101307.28
2018-11-25T07:36:31.836Z,101314.52
2018-11-25T07:39:03.587Z,101314.06
2018-11-25T07:41:35.722Z,101311.40
2018-11-25T07:44:07.394Z,101317.94
2018-11-25T07:46:38.950Z,101323.98
2018-11-25T07:49:10.492Z,101317.98
2018-11-25T07:51:41.092Z,101317.58
2018-11-25T07:54:11.676Z,101320.73
2018-11-25T07:56:42.530Z,101314.13
2018-11-25T07:59:13.375Z,101318.61
2018-11-25T08:01:44.150Z,101313.59
2018-11-25T08:04:15.885Z,101319.31
2018-11-25T08:06:46.838Z,101319.56
2018-11-25T08:09:18.983Z,101316.55
2018-11-25T08:11:50.605Z,101313.45
2018-11-25T08:14:31.110Z,101320.00
2018-11-25T08:17:05.330Z,101310.73
2018-11-25T08:19:37.386Z,101318.67
2018-11-25T08:22:09.224Z,101328.77
2018-11-25T08:24:42.662Z,101322.48
2018-11-25T08:27:14.488Z,101328.27
2018-11-25T08:29:48.189Z,101326.11
2018-11-25T08:32:21.584Z,101322.19
2018-11-25T08:34:52.711Z,101334.33
2018-11-25T08:37:24.459Z,101332.97
2018-11-25T08:39:55.048Z,101331.20
2018-11-25T08:42:26.074Z,101327.39
2018-11-25T08:44:57.277Z,101326.32
2018-11-25T08:47:30.581Z,101337.69
2018-11-25T08:50:01.521Z,101337.22
2018-11-25T08:52:33.414Z,101341.17
2018-11-25T08:55:05.237Z,101342.56
2018-11-25T08:57:45.027Z,101335.13
2018-11-25T09:00:25.330Z,101336.09
2018-11-25T09:02:59.704Z,101336.98
2018-11-25T09:05:30.493Z,101335.19
2018-11-25T09:08:02.254Z,101345.02
2018-11-25T09:10:34.201Z,101340.07
2018-11-25T09:13:05.860Z,101336.98
2018-11-25T09:15:39.027Z,101345.23
2018-11-25T09:18:10.661Z,101340.84
2018-11-25T09:20:41.253Z,101352.41
2018-11-25T09:23:11.890Z,101346.31
2018-11-25T09:25:43.740Z,101345.36
2018-11-25T09:28:14.595Z,101343.50
2018-11-25T09:30:47.782Z,101349.25
2018-11-25T09:33:19.680Z,101348.91
2018-11-25T09:35:50.543Z,101361.36
2018-11-25T09:38:21.621Z,101357.84
2018-11-25T09:40:58.970Z,101352.93
2018-11-25T09:43:23.487Z,101358.70
2018-11-25T09:45:54.520Z,101351.35
2018-11-25T09:48:25.255Z,101364.05
2018-11-25T09:50:57.056Z,101360.53
2018-11-25T09:53:30.609Z,101356.02
2018-11-25T09:56:02.275Z,101355.22
2018-11-25T09:58:35.677Z,101350.80
2018-11-25T10:01:17.980Z,101353.83
2018-11-25T10:03:59.857Z,101347.64
2018-11-25T10:06:31.018Z,101349.84
2018-11-25T10:09:02.174Z,101343.59
2018-11-25T10:11:33.313Z,101337.75
2018-11-25T10:14:04.536Z,101336.42
2018-11-25T10:16:35.965Z,101335.92
2018-11-25T10:19:07.129Z,101333.23
2018-11-25T10:21:39.801Z,101330.01
2018-11-25T10:24:11.042Z,101328.52
2018-11-25T10:26:43.076Z,101326.68
2018-11-25T10:31:53.680Z,101329.80
2018-11-25T10:34:25.381Z,101333.22
2018-11-25T10:36:57.446Z,101335.78
2018-11-25T10:39:30.556Z,101325.97
2018-11-25T10:42:08.866Z,101328.05
2018-11-25T10:44:46.657Z,101318.75
2018-11-25T10:47:20.149Z,101324.34
2018-11-25T10:50:01.746Z,101322.27
2018-11-25T10:52:34.169Z,101319.14
2018-11-25T10:55:08.832Z,101319.03
2018-11-25T10:57:40.549Z,101321.55
2018-11-25T11:00:40.596Z,101315.72
2018-11-25T11:03:17.169Z,101316.54
2018-11-25T11:05:53.673Z,101322.80
2018-11-25T11:08:26.238Z,101323.52
2018-11-25T11:10:56.950Z,101333.30
2018-11-25T11:13:28.152Z,101314.98
2018-11-25T11:16:00.400Z,101320.63
2018-11-25T11:18:32.352Z,101315.58
2018-11-25T11:21:04.657Z,101308.02
2018-11-25T11:23:36.414Z,101305.74
2018-11-25T11:26:12.605Z,101306.25
2018-11-25T11:28:44.328Z,101308.92
2018-11-25T11:31:15.139Z,101310.56
2018-11-25T11:33:49.899Z,101303.91
2018-11-25T11:36:21.653Z,101305.74
2018-11-25T11:39:00.470Z,101296.30
2018-11-25T11:41:34.658Z,101305.46
2018-11-25T11:44:07.039Z,101311.30
2018-11-25T11:46:39.179Z,101309.06
2018-11-25T11:49:10.532Z,101304.72
2018-11-25T11:51:41.773Z,101310.98
2018-11-25T11:54:13.961Z,101298.74
2018-11-25T11:56:44.925Z,101300.03
2018-11-25T11:59:18.852Z,101300.54
2018-11-25T12:01:50.646Z,101303.05
2018-11-25T12:04:24.935Z,101304.21
2018-11-25T12:06:59.819Z,101297.48
2018-11-25T12:09:39.433Z,101300.91
2018-11-25T12:12:11.426Z,101295.94
2018-11-25T12:14:45.784Z,101293.83
2018-11-25T12:17:19.313Z,101280.47
2018-11-25T12:19:51.681Z,101290.66
2018-11-25T12:22:22.673Z,101291.39
2018-11-25T12:24:54.653Z,101287.27
2018-11-25T12:27:25.474Z,101280.66
2018-11-25T12:29:57.278Z,101278.72
2018-11-25T12:32:28.912Z,101280.09
2018-11-25T12:35:00.124Z,101278.63
2018-11-25T12:37:35.878Z,101274.81
2018-11-25T12:40:03.199Z,101279.62
2018-11-25T12:42:34.093Z,101273.22
2018-11-25T12:45:05.046Z,101277.08
2018-11-25T12:47:35.844Z,101273.90
2018-11-25T12:50:09.442Z,101267.02
2018-11-25T12:52:40.286Z,101267.58
2018-11-25T12:55:18.022Z,101273.80
2018-11-25T12:57:49.943Z,101276.09
2018-11-25T13:00:44.845Z,101281.53
2018-11-25T13:03:15.997Z,101269.02
2018-11-25T13:05:46.798Z,101274.60
2018-11-25T13:08:17.656Z,101268.98
2018-11-25T13:10:49.220Z,101270.64
2018-11-25T13:13:20.558Z,101269.31
2018-11-25T13:15:52.231Z,101271.59
2018-11-25T13:18:28.638Z,101271.41
2018-11-25T13:20:59.422Z,101267.31
2018-11-25T13:23:29.974Z,101271.36
2018-11-25T13:26:00.601Z,101271.32
2018-11-25T13:28:33.121Z,101265.41
2018-11-25T13:31:05.517Z,101273.13
2018-11-25T13:33:36.385Z,101275.07
2018-11-25T13:36:10.092Z,101277.87
2018-11-25T13:38:41.563Z,101277.27
2018-11-25T13:41:12.648Z,101278.22
2018-11-25T13:43:43.424Z,101273.78
2018-11-25T13:46:14.342Z,101271.79
2018-11-25T13:48:45.460Z,101271.98
2018-11-25T13:51:17.387Z,101278.27
2018-11-25T13:53:48.317Z,101277.80
2018-11-25T13:56:19.208Z,101280.31
2018-11-25T13:58:51.056Z,101289.30
2018-11-25T14:01:21.840Z,101291.92
2018-11-25T14:03:52.808Z,101293.64
2018-11-25T14:06:23.435Z,101297.72
2018-11-25T14:08:56.245Z,101294.97
2018-11-25T14:11:28.459Z,101295.53
2018-11-25T14:13:59.147Z,101294.30
2018-11-25T14:16:30.223Z,101300.48
2018-11-25T14:19:00.840Z,101307.91
2018-11-25T14:21:31.565Z,101315.81
2018-11-25T14:24:02.313Z,101317.63
2018-11-25T14:26:39.099Z,101319.23
2018-11-25T14:29:09.916Z,101316.47
2018-11-25T14:31:41.857Z,101309.34
2018-11-25T14:34:12.591Z,101313.90
2018-11-25T14:36:43.249Z,101325.55
2018-11-25T14:39:14.873Z,101315.92
2018-11-25T14:41:46.764Z,101316.16
2018-11-25T14:44:17.485Z,101315.09
2018-11-25T14:46:48.760Z,101316.72
2018-11-25T14:49:19.392Z,101315.05
2018-11-25T14:51:50.111Z,101319.95
2018-11-25T14:54:20.829Z,101320.22
2018-11-25T14:56:51.783Z,101320.60
2018-11-25T14:59:23.059Z,101319.52
2018-11-25T15:01:53.729Z,101326.78
2018-11-25T15:04:24.340Z,101322.83
2018-11-25T15:06:54.927Z,101329.50
2018-11-25T15:09:25.557Z,101336.59
2018-11-25T15:11:56.121Z,101329.75
2018-11-25T15:14:26.772Z,101334.89
2018-11-25T15:16:57.510Z,101334.85
2018-11-25T15:19:29.148Z,101337.73
2018-11-25T15:21:59.845Z,101340.62
2018-11-25T15:24:30.520Z,101342.56
2018-11-25T15:27:01.189Z,101343.67
2018-11-25T15:29:32.119Z,101344.02
2018-11-25T15:32:02.727Z,101344.06
2018-11-25T15:34:34.391Z,101344.92
2018-11-25T15:37:05.845Z,101352.02
2018-11-25T15:39:36.648Z,101340.67
2018-11-25T15:42:07.731Z,101344.92
2018-11-25T15:44:38.430Z,101343.03
2018-11-25T15:47:09.007Z,101348.19
2018-11-25T15:49:39.615Z,101357.77
2018-11-25T15:52:12.692Z,101346.94
2018-11-25T15:54:43.533Z,101359.49
2018-11-25T15:57:14.091Z,101353.69
2018-11-25T15:59:44.824Z,101350.98
2018-11-25T16:02:15.716Z,101350.72
2018-11-25T16:04:46.264Z,101349.91
2018-11-25T16:07:17.195Z,101356.17
2018-11-25T16:09:48.137Z,101359.06
2018-11-25T16:12:20.157Z,101353.34
2018-11-25T16:14:51.385Z,101354.94
2018-11-25T16:17:22.088Z,101360.61
2018-11-25T16:19:55.107Z,101358.97
2018-11-25T16:22:26.138Z,101361.77
2018-11-25T16:24:56.752Z,101363.06
2018-11-25T16:27:27.476Z,101359.61
2018-11-25T16:29:58.386Z,101363.22
2018-11-25T16:32:29.020Z,101365.03
2018-11-25T16:35:00.728Z,101366.02
2018-11-25T16:37:33.048Z,101365.72
2018-11-25T16:40:04.550Z,101359.06
2018-11-25T16:42:35.172Z,101358.80
2018-11-25T16:45:08.143Z,101361.90
2018-11-25T16:47:40.742Z,101362.63
2018-11-25T16:50:24.931Z,101361.72
2018-11-25T16:52:50.335Z,101363.36
2018-11-25T16:55:21.237Z,101359.14
2018-11-25T16:57:51.967Z,101360.95
2018-11-25T17:00:22.881Z,101362.20
2018-11-25T17:02:55.260Z,101360.95
2018-11-25T17:05:31.001Z,101360.09
2018-11-25T17:08:30.928Z,101349.95
2018-11-25T17:11:02.398Z,101357.51
2018-11-25T17:13:33.204Z,101360.34
2018-11-25T17:16:04.040Z,101358.93
2018-11-25T17:18:34.898Z,101365.37
2018-11-25T17:21:05.713Z,101364.00
2018-11-25T17:23:37.368Z,101361.47
2018-11-25T17:26:10.707Z,101357.17
2018-11-25T17:28:42.116Z,101364.22
2018-11-25T17:31:15.726Z,101359.84
2018-11-25T17:33:46.775Z,101362.02
2018-11-25T17:36:19.353Z,101361.34
2018-11-25T17:38:52.450Z,101359.74
2018-11-25T17:41:25.445Z,101362.02
2018-11-25T17:43:56.859Z,101367.73
2018-11-25T17:46:29.612Z,101370.25
2018-11-25T17:49:01.948Z,101370.13
2018-11-25T17:51:32.981Z,101372.44
2018-11-25T17:54:06.360Z,101381.92
2018-11-25T17:56:39.033Z,101381.53
2018-11-25T17:59:10.617Z,101378.36
2018-11-25T18:01:42.004Z,101374.80
2018-11-25T18:04:12.921Z,101378.32
2018-11-25T18:06:44.032Z,101382.78
2018-11-25T18:09:14.706Z,101386.58
2018-11-25T18:11:48.230Z,101383.69
2018-11-25T18:14:21.241Z,101389.80
2018-11-25T18:16:53.018Z,101392.06
2018-11-25T18:19:27.411Z,101388.47
2018-11-25T18:22:07.139Z,101380.98
2018-11-25T18:24:37.959Z,101387.99
2018-11-25T18:27:14.220Z,101388.11
2018-11-25T18:29:48.026Z,101397.74
2018-11-25T18:32:43.109Z,101397.74
2018-11-25T18:35:15.267Z,101397.44
2018-11-25T18:37:47.763Z,101394.77
2018-11-25T18:40:19.455Z,101398.41
2018-11-25T18:42:53.170Z,101404.28
2018-11-25T18:45:25.835Z,101395.36
2018-11-25T18:47:57.027Z,101402.59
2018-11-25T18:50:28.333Z,101399.39
2018-11-25T18:53:00.531Z,101401.16
2018-11-25T18:55:29.608Z,101405.61
2018-11-25T18:58:02.111Z,101402.20
2018-11-25T19:00:56.380Z,101407.17
2018-11-25T19:03:30.445Z,101403.93
2018-11-25T19:06:03.535Z,101397.16
2018-11-25T19:08:35.143Z,101403.46
2018-11-25T19:11:06.237Z,101400.88
2018-11-25T19:13:39.568Z,101406.23
2018-11-25T19:16:10.775Z,101410.77
2018-11-25T19:18:43.488Z,101408.77
2018-11-25T19:21:15.681Z,101412.36
2018-11-25T19:23:47.653Z,101413.33
2018-11-25T19:26:21.618Z,101414.30
2018-11-25T19:28:54.269Z,101411.25
2018-11-25T19:31:30.438Z,101416.14
2018-11-25T19:34:02.201Z,101422.00
2018-11-25T19:36:38.006Z,101416.61
2018-11-25T19:39:13.166Z,101418.26
2018-11-25T19:41:49.895Z,101419.16
2018-11-25T19:44:25.364Z,101417.86
2018-11-25T19:46:57.989Z,101419.70
2018-11-25T19:49:30.964Z,101415.23
2018-11-25T19:52:02.586Z,101416.17
2018-11-25T19:54:36.233Z,101423.73
2018-11-25T19:57:09.451Z,101416.03
2018-11-25T19:59:43.458Z,101427.03
2018-11-25T20:02:16.667Z,101420.52
2018-11-25T20:04:49.968Z,101422.14
2018-11-25T20:07:22.103Z,101427.47
2018-11-25T20:09:53.282Z,101421.68
2018-11-25T20:12:30.426Z,101421.09
2018-11-25T20:15:06.250Z,101426.24
2018-11-25T20:17:37.652Z,101426.39
2018-11-25T20:20:15.890Z,101431.75
2018-11-25T20:22:54.156Z,101433.41
2018-11-25T20:25:36.978Z,101437.36
2018-11-25T20:28:09.044Z,101431.41
2018-11-25T20:30:40.709Z,101443.47
2018-11-25T20:33:18.676Z,101442.17
2018-11-25T20:35:50.417Z,101443.15
2018-11-25T20:38:29.051Z,101435.98
2018-11-25T20:41:02.535Z,101437.68
2018-11-25T20:43:35.522Z,101442.81
2018-11-25T20:46:12.703Z,101448.61
2018-11-25T20:48:48.299Z,101444.66
2018-11-25T20:51:24.411Z,101439.80
2018-11-25T20:54:00.338Z,101441.09
2018-11-25T20:56:31.927Z,101446.88
2018-11-25T20:59:04.914Z,101445.05
2018-11-25T21:01:36.669Z,101446.30
2018-11-25T21:04:09.304Z,101451.05
2018-11-25T21:06:45.457Z,101451.48
2018-11-25T21:09:18.436Z,101438.28
2018-11-25T21:11:49.536Z,101451.63
2018-11-25T21:20:02.524Z,101462.67
2018-11-25T21:22:33.271Z,101456.67
2018-11-25T21:25:04.388Z,101454.55
2018-11-25T21:27:35.142Z,101456.17
2018-11-25T21:30:11.709Z,101462.14
2018-11-25T21:32:42.444Z,101455.41
2018-11-25T21:35:14.069Z,101469.48
2018-11-25T21:37:44.812Z,101454.88
2018-11-25T21:40:20.190Z,101454.80
2018-11-25T21:42:51.968Z,101460.59
2018-11-25T21:45:23.544Z,101455.70
2018-11-25T21:47:54.910Z,101456.31
2018-11-25T21:50:27.932Z,101448.33
2018-11-25T21:52:58.710Z,101453.62
2018-11-25T21:55:30.318Z,101445.12
2018-11-25T21:58:01.457Z,101446.49
2018-11-25T22:00:33.517Z,101447.93
2018-11-25T22:03:05.451Z,101448.80
2018-11-25T22:08:31.592Z,101450.09
2018-11-25T22:11:03.125Z,101451.06
2018-11-25T22:13:33.967Z,101451.96
2018-11-25T22:16:10.642Z,101461.71
2018-11-25T22:18:42.912Z,101455.48
2018-11-25T22:21:13.660Z,101456.78
2018-11-25T22:23:46.571Z,101461.67
2018-11-25T22:26:17.854Z,101458.58
2018-11-25T22:28:48.516Z,101463.11
2018-11-25T22:31:19.072Z,101449.70
2018-11-25T22:33:50.730Z,101453.41
2018-11-25T22:36:21.390Z,101451.53
2018-11-25T22:38:52.007Z,101455.34
2018-11-25T22:41:23.686Z,101459.41
2018-11-25T22:43:55.225Z,101461.49
2018-11-25T22:46:26.606Z,101457.39
2018-11-25T22:48:57.949Z,101462.32
2018-11-25T22:51:28.520Z,101454.72
2018-11-25T22:54:01.139Z,101455.73
2018-11-25T22:56:32.872Z,101459.84
2018-11-25T22:59:04.489Z,101460.92
2018-11-25T23:01:35.694Z,101464.45
2018-11-25T23:04:24.231Z,101457.86
2018-11-25T23:07:05.005Z,101450.88
2018-11-25T23:09:38.793Z,101460.16
2018-11-25T23:12:10.953Z,101458.83
2018-11-25T23:14:42.950Z,101467.86
2018-11-25T23:17:13.740Z,101462.10
2018-11-25T23:19:45.255Z,101456.05
2018-11-25T23:22:16.230Z,101453.42
2018-11-25T23:24:46.966Z,101465.83
2018-11-25T23:27:19.010Z,101463.14
2018-11-25T23:29:53.487Z,101466.63
2018-11-25T23:32:25.228Z,101466.49
2018-11-25T23:34:56.474Z,101458.22
2018-11-25T23:37:28.560Z,101457.81
2018-11-25T23:40:01.012Z,101456.02
2018-11-25T23:42:31.654Z,101467.06
2018-11-25T23:45:02.631Z,101462.10
2018-11-25T23:49:15.995Z,101466.23
2018-11-25T23:51:50.136Z,101467.09
2018-11-25T23:54:22.907Z,101469.00
2018-11-25T23:56:54.306Z,101464.27
2018-11-25T23:59:25.842Z,101457.89
